Time;durP1;ratioP1;P1;durP2;ratioP2;P2;SDS_P1;SDS_P2;PMS_P1;PMS_P2;Temp;Humidity;BMP_temperature;BMP_pressure;BME280_temperature;BME280_humidity;BME280_pressure;Samples;Min_cycle;Max_cycle;Signal;HPM_P1;HPM_P2
2022/05/02 00:01:10;;;;;;;5.33;3.93;;;21.70;41.90;;;;;;5017012;28;88557;-67
2022/05/02 00:03:38;;;;;;;5.43;3.60;;;21.70;41.90;;;;;;5010110;28;90033;-67
2022/05/02 00:06:08;;;;;;;7.50;3.80;;;21.70;41.80;;;;;;5011728;28;88720;-67
2022/05/02 00:08:36;;;;;;;5.20;3.77;;;21.70;41.90;;;;;;5019157;28;91828;-67
2022/05/02 00:11:04;;;;;;;7.07;3.87;;;21.70;41.90;;;;;;5020397;28;88324;-67
2022/05/02 00:13:33;;;;;;;5.87;3.57;;;21.70;41.90;;;;;;5004278;28;92064;-67
2022/05/02 00:16:02;;;;;;;4.33;3.70;;;21.70;41.80;;;;;;5016637;28;90563;-67
2022/05/02 00:18:31;;;;;;;5.07;3.50;;;21.70;41.80;;;;;;5010796;27;88300;-67
2022/05/02 00:20:59;;;;;;;5.80;3.83;;;21.70;41.80;;;;;;5002328;28;88573;-67
2022/05/02 00:23:28;;;;;;;6.13;3.63;;;21.70;41.80;;;;;;5013674;28;90087;-67
2022/05/02 00:25:56;;;;;;;5.13;3.47;;;21.60;41.80;;;;;;5008040;28;93161;-67
2022/05/02 00:28:24;;;;;;;7.17;3.40;;;21.70;41.90;;;;;;5008226;28;88497;-67
2022/05/02 00:30:52;;;;;;;5.23;3.47;;;21.60;41.70;;;;;;5013647;28;89230;-67
2022/05/02 00:33:20;;;;;;;6.30;3.30;;;21.70;41.80;;;;;;5009292;28;89113;-67
2022/05/02 00:35:50;;;;;;;4.00;3.50;;;21.60;41.70;;;;;;5016038;28;88711;-67
2022/05/02 00:38:18;;;;;;;3.37;2.93;;;21.60;41.70;;;;;;4999387;28;88887;-67
2022/05/02 00:40:46;;;;;;;6.70;3.10;;;21.60;41.70;;;;;;5000240;28;89278;-67
2022/05/02 00:43:14;;;;;;;5.73;2.53;;;21.60;41.70;;;;;;4999360;28;90870;-67
2022/05/02 00:45:42;;;;;;;3.33;2.90;;;21.60;41.70;;;;;;5012921;28;89525;-67
2022/05/02 00:48:10;;;;;;;4.37;2.60;;;21.60;41.70;;;;;;5014920;28;89889;-67
2022/05/02 00:50:39;;;;;;;4.67;2.93;;;21.60;41.70;;;;;;5019826;28;88333;-67
2022/05/02 00:53:10;;;;;;;2.40;1.97;;;21.60;41.70;;;;;;5010864;28;89423;-67
2022/05/02 00:55:38;;;;;;;3.33;2.23;;;21.50;41.70;;;;;;5013049;28;89152;-67
2022/05/02 00:58:07;;;;;;;3.20;2.13;;;21.50;41.70;;;;;;5000564;28;92897;-68
2022/05/02 01:00:36;;;;;;;3.63;2.60;;;21.50;41.70;;;;;;5001634;28;88660;-68
2022/05/02 01:03:04;;;;;;;3.27;2.23;;;21.40;41.60;;;;;;5014593;28;90927;-67
2022/05/02 01:05:32;;;;;;;2.83;2.50;;;21.40;41.60;;;;;;5005253;28;93475;-67
2022/05/02 01:07:59;;;;;;;2.60;2.23;;;21.40;41.60;;;;;;5006831;28;88861;-68
2022/05/02 01:10:30;;;;;;;3.67;2.33;;;21.40;42.30;;;;;;5004183;28;88645;-67
2022/05/02 01:12:58;;;;;;;2.97;2.50;;;21.30;41.60;;;;;;5005030;28;90647;-67
2022/05/02 01:15:27;;;;;;;3.83;2.43;;;21.30;41.60;;;;;;5015381;28;90062;-67
2022/05/02 01:17:55;;;;;;;3.60;2.27;;;21.30;41.60;;;;;;5009948;28;88716;-68
2022/05/02 01:20:25;;;;;;;3.23;2.53;;;21.30;41.60;;;;;;5018786;28;88649;-67
2022/05/02 01:22:53;;;;;;;2.53;2.33;;;21.30;41.60;;;;;;5002767;28;90648;-67
2022/05/02 01:25:21;;;;;;;4.00;2.17;;;21.30;41.60;;;;;;5002832;28;88911;-67
2022/05/02 01:27:49;;;;;;;2.37;2.00;;;21.30;41.60;;;;;;5003109;28;88537;-67
2022/05/02 01:30:17;;;;;;;3.00;1.77;;;21.30;41.60;;;;;;5002877;28;88517;-67
2022/05/02 01:32:46;;;;;;;2.27;1.70;;;21.20;41.50;;;;;;5001332;28;89593;-67
2022/05/02 01:35:14;;;;;;;6.07;1.60;;;21.20;41.50;;;;;;5002128;28;90391;-67
2022/05/02 01:37:44;;;;;;;4.60;2.00;;;21.20;41.50;;;;;;5003380;28;88963;-67
2022/05/02 01:40:13;;;;;;;4.47;2.00;;;21.30;41.60;;;;;;5004335;28;88492;-67
2022/05/02 01:42:41;;;;;;;1.70;1.57;;;21.30;41.60;;;;;;5010076;28;88828;-67
2022/05/02 01:45:10;;;;;;;3.33;1.80;;;21.30;41.60;;;;;;5022578;28;92855;-67
2022/05/02 01:47:38;;;;;;;2.67;1.80;;;21.30;41.60;;;;;;5018789;28;89388;-67
2022/05/02 01:50:06;;;;;;;1.90;1.70;;;21.30;41.50;;;;;;5004952;28;88493;-67
2022/05/02 01:52:34;;;;;;;4.13;2.30;;;21.30;41.50;;;;;;5014521;28;93788;-67
2022/05/02 01:55:04;;;;;;;2.97;2.07;;;21.30;41.50;;;;;;5019281;28;91021;-67
2022/05/02 01:57:32;;;;;;;1.77;1.50;;;21.30;41.50;;;;;;5002178;28;88802;-67
2022/05/02 02:00:00;;;;;;;3.50;1.60;;;21.30;41.50;;;;;;5020262;28;88759;-67
2022/05/02 02:02:28;;;;;;;2.97;1.63;;;21.30;41.50;;;;;;5008745;28;90519;-67
2022/05/02 02:07:44;;;;;;;2.47;1.70;;;21.20;41.40;;;;;;5016020;28;88913;-67
2022/05/02 02:10:14;;;;;;;1.73;1.63;;;21.20;41.40;;;;;;5002199;28;88487;-67
2022/05/02 02:12:42;;;;;;;2.63;1.97;;;21.20;41.40;;;;;;5017101;28;90670;-67
2022/05/02 02:15:14;;;;;;;2.30;1.43;;;21.20;41.50;;;;;;5022296;28;89997;-70
2022/05/02 02:17:44;;;;;;;2.00;1.80;;;21.20;41.50;;;;;;5019189;28;89160;-67
2022/05/02 02:20:13;;;;;;;3.60;2.03;;;21.20;41.50;;;;;;5029200;27;88612;-67
2022/05/02 02:22:41;;;;;;;1.97;1.60;;;21.20;41.50;;;;;;5019064;28;89455;-67
2022/05/02 02:25:10;;;;;;;1.83;1.60;;;21.20;41.50;;;;;;5006698;28;88513;-67
2022/05/02 02:27:39;;;;;;;2.47;1.37;;;21.20;41.50;;;;;;5019134;28;89560;-67
2022/05/02 02:30:09;;;;;;;5.90;1.93;;;20.90;41.20;;;;;;5021860;28;89513;-67
2022/05/02 02:32:37;;;;;;;1.53;1.43;;;21.10;41.50;;;;;;5019522;28;89688;-67
2022/05/02 02:35:06;;;;;;;2.10;1.90;;;21.10;41.40;;;;;;5017567;28;89045;-67
2022/05/02 02:37:34;;;;;;;2.27;1.50;;;21.10;41.40;;;;;;5003049;28;88689;-67
2022/05/02 02:40:03;;;;;;;1.87;1.60;;;21.10;41.40;;;;;;5012751;28;89765;-67
2022/05/02 02:42:31;;;;;;;2.60;1.77;;;21.10;41.40;;;;;;5012371;28;90228;-67
2022/05/02 02:45:00;;;;;;;1.70;1.60;;;21.10;41.40;;;;;;5021408;28;92695;-67
2022/05/02 02:47:29;;;;;;;3.17;1.67;;;21.10;41.50;;;;;;5016324;28;88335;-67
2022/05/02 02:49:57;;;;;;;3.70;1.47;;;21.10;41.40;;;;;;5003199;28;88548;-67
2022/05/02 02:52:25;;;;;;;2.40;1.90;;;21.00;41.40;;;;;;5008293;28;90585;-67
2022/05/02 02:54:53;;;;;;;4.20;2.20;;;21.00;41.40;;;;;;5012881;28;88525;-67
2022/05/02 02:57:21;;;;;;;3.97;1.50;;;21.00;41.40;;;;;;5021387;28;88692;-67
2022/05/02 02:59:48;;;;;;;1.80;1.60;;;21.00;41.40;;;;;;5020133;28;88450;-67
2022/05/02 03:02:18;;;;;;;2.30;1.77;;;21.00;41.40;;;;;;5017317;28;90958;-67
2022/05/02 03:07:34;;;;;;;5.07;1.50;;;21.00;41.40;;;;;;5001868;28;91944;-67
2022/05/02 03:10:02;;;;;;;1.77;1.50;;;21.00;41.40;;;;;;5015062;28;88528;-67
2022/05/02 03:12:30;;;;;;;1.70;1.40;;;21.00;41.40;;;;;;5005861;28;89578;-67
2022/05/02 03:14:59;;;;;;;1.10;1.00;;;21.00;41.40;;;;;;5001460;28;90121;-68
2022/05/02 03:17:28;;;;;;;1.73;1.20;;;21.00;41.40;;;;;;5008466;28;88536;-67
2022/05/02 03:19:56;;;;;;;1.93;1.50;;;21.00;41.50;;;;;;5021448;28;88404;-67
2022/05/02 03:22:24;;;;;;;1.53;1.37;;;21.00;41.50;;;;;;5014865;28;92302;-67
2022/05/02 03:24:52;;;;;;;1.73;1.13;;;21.00;41.50;;;;;;5010091;28;90209;-67
2022/05/02 03:27:20;;;;;;;1.67;1.57;;;21.00;41.50;;;;;;5018149;28;89203;-67
2022/05/02 03:29:48;;;;;;;2.00;1.50;;;21.00;41.50;;;;;;5009732;28;88513;-67
2022/05/02 03:32:17;;;;;;;2.27;1.77;;;21.00;41.50;;;;;;5014575;28;88934;-67
2022/05/02 03:34:47;;;;;;;3.93;1.43;;;21.00;41.50;;;;;;5011766;28;89003;-68
2022/05/02 03:37:15;;;;;;;4.73;2.43;;;21.00;41.60;;;;;;5001604;28;91790;-67
2022/05/02 03:39:44;;;;;;;3.07;2.30;;;21.00;41.60;;;;;;5005709;28;88497;-67
2022/05/02 03:42:12;;;;;;;5.17;3.03;;;21.00;41.60;;;;;;5010456;28;89879;-67
2022/05/02 03:44:40;;;;;;;5.83;2.97;;;21.00;41.60;;;;;;5004932;28;90173;-67
2022/05/02 03:47:08;;;;;;;4.53;3.70;;;21.00;41.60;;;;;;5002600;28;89072;-67
2022/05/02 03:49:36;;;;;;;9.60;4.67;;;21.00;41.60;;;;;;5005940;28;88365;-67
2022/05/02 03:52:06;;;;;;;7.70;5.03;;;21.00;41.60;;;;;;5014658;28;90199;-67
2022/05/02 03:54:34;;;;;;;11.87;5.73;;;21.00;41.70;;;;;;5019154;28;92961;-68
2022/05/02 03:57:06;;;;;;;9.70;6.43;;;21.10;41.80;;;;;;5016355;28;91896;-67
2022/05/02 03:59:34;;;;;;;11.67;7.00;;;21.00;41.70;;;;;;5011416;28;88486;-67
2022/05/02 04:02:02;;;;;;;14.83;8.30;;;21.00;41.70;;;;;;5014382;28;90696;-67
2022/05/02 04:04:30;;;;;;;14.40;8.63;;;21.00;41.70;;;;;;5005384;28;90412;-67
2022/05/02 04:06:58;;;;;;;15.17;8.33;;;21.00;41.80;;;;;;5004538;28;88432;-67
2022/05/02 04:09:27;;;;;;;18.03;10.00;;;21.00;41.80;;;;;;5008578;28;88442;-67
2022/05/02 04:11:56;;;;;;;17.30;9.53;;;21.00;41.80;;;;;;5015176;28;91684;-67
2022/05/02 04:14:24;;;;;;;18.10;9.57;;;21.00;41.80;;;;;;5004790;28;91661;-67
2022/05/02 04:16:52;;;;;;;19.47;10.37;;;21.00;41.80;;;;;;5000468;28;89794;-67
2022/05/02 04:19:20;;;;;;;19.17;10.37;;;21.00;42.40;;;;;;5000319;28;88504;-67
2022/05/02 04:21:48;;;;;;;17.20;9.43;;;21.00;41.80;;;;;;5005686;28;92951;-67
2022/05/02 04:24:17;;;;;;;19.80;10.23;;;21.00;41.80;;;;;;5010990;28;89274;-67
2022/05/02 04:26:47;;;;;;;25.03;12.03;;;21.00;41.80;;;;;;5000265;28;89400;-67
2022/05/02 04:29:15;;;;;;;21.23;12.13;;;21.00;41.80;;;;;;4999458;28;88504;-67
2022/05/02 04:31:43;;;;;;;24.43;13.43;;;21.00;41.90;;;;;;4999780;28;92618;-67
2022/05/02 04:34:11;;;;;;;25.73;14.47;;;21.00;41.90;;;;;;5007428;28;92713;-67
2022/05/02 04:36:39;;;;;;;24.17;13.33;;;21.00;41.90;;;;;;5013098;28;88342;-67
2022/05/02 04:39:07;;;;;;;24.90;12.80;;;21.00;41.90;;;;;;5017241;28;88521;-67
2022/05/02 04:41:35;;;;;;;24.83;12.93;;;21.00;41.90;;;;;;5007971;28;90325;-67
2022/05/02 04:44:05;;;;;;;24.60;12.93;;;21.00;41.90;;;;;;5007686;28;88824;-67
2022/05/02 04:46:33;;;;;;;28.63;14.67;;;21.00;41.90;;;;;;4998795;28;88547;-67
2022/05/02 04:49:01;;;;;;;24.73;13.40;;;21.00;41.80;;;;;;4998802;28;88444;-67
2022/05/02 04:51:29;;;;;;;24.27;13.53;;;21.00;41.80;;;;;;4998134;28;90186;-67
2022/05/02 04:53:57;;;;;;;23.70;12.97;;;21.10;41.80;;;;;;4998065;28;90069;-67
2022/05/02 04:56:25;;;;;;;25.17;13.60;;;21.20;41.80;;;;;;4998450;28;89215;-67
2022/05/02 04:58:53;;;;;;;23.53;14.50;;;21.30;41.80;;;;;;4999259;28;88456;-67
2022/05/02 05:01:22;;;;;;;27.17;13.43;;;21.50;41.80;;;;;;5013403;28;90548;-67
2022/05/02 05:03:50;;;;;;;23.80;12.87;;;21.80;41.60;;;;;;5006179;28;89919;-67
2022/05/02 05:06:22;;;;;;;20.60;12.90;;;22.20;41.40;;;;;;5018811;28;90005;-70
2022/05/02 05:08:50;;;;;;;20.50;11.93;;;22.50;41.10;;;;;;5019013;28;88362;-68
2022/05/02 05:11:31;;;;;;;18.83;11.03;;;22.80;40.80;;;;;;5006088;28;91071;-67
2022/05/02 05:17:01;;;;;;;21.83;10.77;;;22.70;40.60;;;;;;5018018;27;89158;-68
2022/05/02 05:19:38;;;;;;;20.07;11.13;;;22.50;40.70;;;;;;5016455;27;88583;-67
2022/05/02 05:22:12;;;;;;;21.77;9.97;;;22.30;40.80;;;;;;5007377;28;90040;-67
2022/05/02 05:25:07;;;;;;;20.13;9.83;;;22.20;40.90;;;;;;4999172;28;88916;-68
2022/05/02 05:28:04;;;;;;;17.63;9.40;;;22.00;41.00;;;;;;5005720;27;88551;-66
2022/05/02 05:30:37;;;;;;;15.73;9.43;;;21.90;41.00;;;;;;4998084;27;88367;-66
2022/05/02 05:33:21;;;;;;;13.07;7.43;;;21.90;41.00;;;;;;5015317;28;90679;-65
2022/05/02 05:35:55;;;;;;;15.53;8.87;;;21.80;41.10;;;;;;5015209;28;92156;-67
2022/05/02 05:38:25;;;;;;;13.13;7.77;;;21.80;41.20;;;;;;5015949;28;88423;-66
2022/05/02 05:40:58;;;;;;;10.70;6.30;;;21.70;41.40;;;;;;5003681;28;88421;-66
2022/05/02 05:43:36;;;;;;;10.70;6.50;;;21.70;41.50;;;;;;4999056;28;90796;-65
2022/05/02 05:46:15;;;;;;;11.60;6.53;;;21.70;41.60;;;;;;4998855;28;88487;-66
2022/05/02 05:48:51;;;;;;;11.07;6.73;;;21.70;41.80;;;;;;4999602;28;89243;-65
2022/05/02 05:51:29;;;;;;;9.37;5.83;;;21.70;41.90;;;;;;4999280;28;88368;-65
2022/05/02 05:54:06;;;;;;;11.20;6.43;;;21.80;42.10;;;;;;4999242;28;90082;-66
2022/05/02 05:56:40;;;;;;;8.50;5.40;;;21.80;42.20;;;;;;5001460;28;91892;-66
2022/05/02 05:59:09;;;;;;;8.00;5.03;;;21.80;42.30;;;;;;5010373;28;92737;-66
2022/05/02 06:02:00;;;;;;;14.33;9.07;;;21.80;42.40;;;;;;5008128;28;88553;-68
2022/05/02 06:04:33;;;;;;;18.80;9.23;;;21.80;42.50;;;;;;5015234;28;88684;-65
2022/05/02 06:07:01;;;;;;;29.00;18.07;;;21.90;42.70;;;;;;5030299;28;92159;-66
2022/05/02 06:09:30;;;;;;;75.80;36.57;;;21.90;42.80;;;;;;5011566;28;90201;-66
2022/05/02 06:11:59;;;;;;;66.40;30.10;;;22.00;43.00;;;;;;5021819;28;88412;-66
2022/05/02 06:14:28;;;;;;;55.97;25.47;;;22.00;43.10;;;;;;5012982;28;89341;-65
2022/05/02 06:19:46;;;;;;;53.70;23.20;;;22.10;43.30;;;;;;5011714;28;91519;-66
2022/05/02 06:22:14;;;;;;;32.47;18.20;;;22.10;43.40;;;;;;5015197;28;88224;-65
2022/05/02 06:24:46;;;;;;;26.93;13.07;;;22.10;43.40;;;;;;5010459;28;90623;-66
2022/05/02 06:27:15;;;;;;;28.37;12.27;;;22.10;43.60;;;;;;5007292;28;89460;-66
2022/05/02 06:29:43;;;;;;;21.90;9.57;;;22.10;43.70;;;;;;5001697;28;89015;-66
2022/05/02 06:32:12;;;;;;;19.07;8.43;;;22.10;43.90;;;;;;5009843;28;88659;-67
2022/05/02 06:34:41;;;;;;;15.90;8.40;;;22.10;44.10;;;;;;5008208;28;90023;-66
2022/05/02 06:37:19;;;;;;;16.10;8.53;;;22.10;44.80;;;;;;5002980;28;89079;-66
2022/05/02 06:40:02;;;;;;;14.63;6.43;;;22.10;44.20;;;;;;5015812;28;91661;-66
2022/05/02 06:42:31;;;;;;;15.93;6.30;;;22.10;44.30;;;;;;5006953;28;88486;-66
2022/05/02 06:45:34;;;;;;;12.33;6.77;;;22.10;44.20;;;;;;5010557;28;93389;-66
2022/05/02 06:48:26;;;;;;;10.23;5.47;;;22.10;44.30;;;;;;5001442;28;91812;-66
2022/05/02 06:50:57;;;;;;;9.23;5.07;;;22.10;44.20;;;;;;5011143;28;88917;-66
2022/05/02 06:53:56;;;;;;;10.57;4.77;;;22.10;44.10;;;;;;5014232;28;89568;-65
2022/05/02 06:56:31;;;;;;;7.87;5.33;;;22.00;44.10;;;;;;5020256;28;90959;-65
2022/05/02 06:59:03;;;;;;;5.13;3.83;;;22.10;44.10;;;;;;5004246;28;89544;-64
2022/05/02 07:01:35;;;;;;;6.13;4.63;;;22.00;44.60;;;;;;5019823;28;88350;-65
2022/05/02 07:04:26;;;;;;;6.27;3.80;;;22.10;43.90;;;;;;5009563;28;88509;-65
2022/05/02 07:07:02;;;;;;;7.90;3.93;;;22.00;43.80;;;;;;4992860;28;90727;-64
2022/05/02 07:09:38;;;;;;;4.30;3.67;;;22.00;43.70;;;;;;4998245;28;90070;-65
2022/05/02 07:12:11;;;;;;;8.17;4.00;;;22.00;43.60;;;;;;5008718;28;88984;-65
2022/05/02 07:14:46;;;;;;;4.73;3.33;;;22.00;43.50;;;;;;5016607;28;88670;-65
2022/05/02 07:17:23;;;;;;;5.87;3.73;;;21.90;43.30;;;;;;5012048;28;89260;-64
2022/05/02 07:19:54;;;;;;;4.83;3.70;;;21.90;43.20;;;;;;5000436;28;90116;-65
2022/05/02 07:22:28;;;;;;;6.57;3.80;;;21.90;43.00;;;;;;5012663;28;89719;-64
2022/05/02 07:25:02;;;;;;;4.17;3.03;;;21.80;42.90;;;;;;5021061;28;89129;-64
2022/05/02 07:27:39;;;;;;;10.13;3.57;;;21.80;42.90;;;;;;5021314;28;89514;-64
2022/05/02 07:30:08;;;;;;;4.37;3.13;;;21.50;42.40;;;;;;5021200;28;92588;-64
2022/05/02 07:32:36;;;;;;;5.30;3.37;;;21.80;42.50;;;;;;5019544;28;90234;-64
2022/05/02 07:35:05;;;;;;;4.30;3.30;;;21.80;42.40;;;;;;5020726;28;88695;-64
2022/05/02 07:37:33;;;;;;;4.20;2.77;;;21.80;42.30;;;;;;5001378;28;90170;-64
2022/05/02 07:40:03;;;;;;;6.20;3.07;;;21.80;42.20;;;;;;5001311;28;88432;-64
2022/05/02 07:42:36;;;;;;;3.83;2.87;;;21.80;42.00;;;;;;5012058;28;90002;-64
2022/05/02 07:45:07;;;;;;;3.93;3.13;;;21.80;41.90;;;;;;5021116;28;88508;-65
2022/05/02 07:47:35;;;;;;;7.73;2.67;;;21.80;41.70;;;;;;5021385;28;90541;-64
2022/05/02 07:50:05;;;;;;;4.20;2.53;;;21.70;41.60;;;;;;5021146;28;90037;-64
2022/05/02 07:52:36;;;;;;;6.17;2.80;;;21.70;41.50;;;;;;5009847;28;88808;-64
2022/05/02 07:55:06;;;;;;;3.00;2.70;;;21.70;41.40;;;;;;5001526;28;88483;-64
2022/05/02 07:57:38;;;;;;;3.53;2.93;;;21.70;41.20;;;;;;5006996;28;93099;-64
2022/05/02 08:00:08;;;;;;;4.40;3.30;;;21.60;41.10;;;;;;5020574;28;90171;-64
2022/05/02 08:02:36;;;;;;;7.33;3.10;;;21.60;41.00;;;;;;5009770;28;88861;-64
2022/05/02 08:05:05;;;;;;;4.23;3.00;;;21.60;40.90;;;;;;5016228;28;88404;-65
2022/05/02 08:07:35;;;;;;;5.53;2.93;;;21.60;40.80;;;;;;5001140;28;92401;-64
2022/05/02 08:10:37;;;;;;;3.00;2.50;;;21.60;40.80;;;;;;5000800;28;90361;-64
2022/05/02 08:13:13;;;;;;;7.57;2.93;;;21.60;40.80;;;;;;5002565;28;88424;-64
2022/05/02 08:15:44;;;;;;;6.60;3.10;;;21.50;41.20;;;;;;5012784;28;88612;-64
2022/05/02 08:18:33;;;;;;;4.50;3.47;;;21.50;40.50;;;;;;4999299;28;89948;-64
2022/05/02 08:21:03;;;;;;;3.73;2.67;;;21.50;40.50;;;;;;4998489;28;88416;-64
2022/05/02 08:29:30;;;;;;;4.07;2.80;;;21.40;40.20;;;;;;5020210;28;90676;-64
2022/05/02 08:32:08;;;;;;;4.83;2.93;;;21.50;40.10;;;;;;5009498;28;88576;-64
2022/05/02 08:34:37;;;;;;;4.57;2.87;;;21.40;40.00;;;;;;4999716;28;91424;-64
2022/05/02 08:37:14;;;;;;;5.23;3.33;;;21.40;40.00;;;;;;5000667;28;88393;-64
2022/05/02 08:39:48;;;;;;;8.03;2.80;;;21.40;40.00;;;;;;5006909;28;91072;-64
2022/05/02 08:42:53;;;;;;;3.00;2.40;;;21.40;39.80;;;;;;5003040;28;90384;-64
2022/05/02 08:46:14;;;;;;;4.53;2.37;;;21.40;39.80;;;;;;5003980;28;88468;-64
2022/05/02 08:52:22;;;;;;;2.97;2.37;;;21.30;39.60;;;;;;4999465;28;92574;-67
2022/05/02 08:55:02;;;;;;;4.27;2.13;;;21.30;39.60;;;;;;4998330;28;91588;-64
2022/05/02 08:57:58;;;;;;;2.43;2.10;;;21.30;39.60;;;;;;4999030;28;89153;-64
2022/05/02 09:00:28;;;;;;;2.70;2.00;;;21.30;39.70;;;;;;4997665;28;88761;-64
2022/05/02 09:03:47;;;;;;;2.83;2.27;;;21.40;39.60;;;;;;4997899;28;89034;-64
2022/05/02 09:06:38;;;;;;;3.10;2.30;;;21.40;39.60;;;;;;4998235;28;89501;-64
2022/05/02 09:09:26;;;;;;;2.97;1.90;;;21.20;39.40;;;;;;5010093;28;88916;-64
2022/05/02 09:12:28;;;;;;;3.93;2.27;;;21.40;39.50;;;;;;5018818;28;88732;-64
2022/05/02 09:15:23;;;;;;;2.03;1.57;;;21.40;39.50;;;;;;4997213;28;90313;-65
2022/05/02 09:18:25;;;;;;;3.80;1.93;;;21.40;39.40;;;;;;4994624;28;90647;-64
2022/05/02 09:20:57;;;;;;;2.07;1.90;;;21.40;39.40;;;;;;5017369;28;90311;-64
2022/05/02 09:23:57;;;;;;;2.70;2.33;;;21.40;39.30;;;;;;4998611;28;88721;-64
2022/05/02 09:26:42;;;;;;;4.00;2.13;;;21.30;39.20;;;;;;5004899;28;92035;-64
2022/05/02 09:30:04;;;;;;;3.63;2.40;;;21.30;39.10;;;;;;5003525;28;90351;-64
2022/05/02 09:32:46;;;;;;;2.97;2.30;;;21.30;39.10;;;;;;5001837;28;89824;-64
2022/05/02 09:35:31;;;;;;;3.90;2.40;;;21.30;39.00;;;;;;5003324;28;88545;-64
2022/05/02 09:37:59;;;;;;;3.17;2.13;;;21.30;39.10;;;;;;5006287;28;90733;-64
2022/05/02 09:40:37;;;;;;;2.40;2.13;;;21.30;39.00;;;;;;5001327;28;89475;-64
2022/05/02 09:43:24;;;;;;;3.50;2.60;;;21.30;39.00;;;;;;5001047;28;88612;-64
2022/05/02 09:51:59;;;;;;;3.30;2.10;;;21.30;38.80;;;;;;5001867;28;90901;-64
2022/05/02 09:57:32;;;;;;;3.40;2.40;;;21.30;38.80;;;;;;5020753;28;88839;-63
2022/05/02 10:02:47;;;;;;;2.10;1.90;;;21.30;38.70;;;;;;5012286;28;90092;-64
2022/05/02 10:05:22;;;;;;;2.73;2.00;;;21.40;38.70;;;;;;5002932;28;88506;-64
2022/05/02 10:07:57;;;;;;;2.67;2.20;;;21.30;38.60;;;;;;5019107;28;88682;-64
2022/05/02 10:10:27;;;;;;;2.50;2.20;;;21.40;38.60;;;;;;5021771;28;89850;-64
2022/05/02 10:13:00;;;;;;;2.63;1.80;;;21.30;38.50;;;;;;5010648;28;89101;-64
2022/05/02 10:15:39;;;;;;;2.07;1.83;;;21.40;38.60;;;;;;5017602;28;88676;-64
2022/05/02 10:18:23;;;;;;;4.37;2.00;;;21.30;38.50;;;;;;5022787;28;88471;-64
2022/05/02 10:21:00;;;;;;;3.83;2.00;;;21.40;38.60;;;;;;5022373;28;90725;-64
2022/05/02 10:23:40;;;;;;;2.37;2.17;;;21.30;38.40;;;;;;5007465;28;88299;-64
2022/05/02 10:26:18;;;;;;;3.10;2.43;;;21.40;39.10;;;;;;5001747;28;92605;-64
2022/05/02 10:29:34;;;;;;;2.87;2.00;;;21.50;38.50;;;;;;5001038;28;88467;-64
2022/05/02 10:32:06;;;;;;;3.80;2.03;;;21.50;38.50;;;;;;5000752;28;90732;-64
2022/05/02 10:34:35;;;;;;;4.07;2.70;;;21.50;38.40;;;;;;5013494;28;90384;-64
2022/05/02 10:37:07;;;;;;;2.70;2.07;;;21.50;38.40;;;;;;5002752;28;88388;-65
2022/05/02 10:39:40;;;;;;;2.40;2.20;;;21.50;38.40;;;;;;5021265;28;88880;-64
2022/05/02 10:42:10;;;;;;;2.73;2.13;;;21.60;38.50;;;;;;5020283;28;90593;-64
2022/05/02 10:44:46;;;;;;;3.53;2.40;;;21.60;38.50;;;;;;5008248;28;90270;-64
2022/05/02 10:47:15;;;;;;;7.07;2.40;;;21.60;38.50;;;;;;5001504;28;88496;-64
2022/05/02 10:49:57;;;;;;;3.97;2.20;;;21.60;38.40;;;;;;5003814;28;88546;-64
2022/05/02 10:52:32;;;;;;;4.07;2.57;;;21.50;38.30;;;;;;5000395;28;92578;-64
2022/05/02 10:55:05;;;;;;;6.63;2.53;;;21.50;38.30;;;;;;5002571;28;88908;-64
2022/05/02 10:57:35;;;;;;;3.33;2.17;;;21.50;38.20;;;;;;5001331;28;88598;-65
2022/05/02 11:00:06;;;;;;;5.63;2.50;;;21.60;38.30;;;;;;5001643;28;88436;-64
2022/05/02 11:03:06;;;;;;;2.43;2.00;;;21.60;38.30;;;;;;5000728;28;90898;-64
2022/05/02 11:05:44;;;;;;;3.03;2.30;;;21.60;38.30;;;;;;5003514;28;92975;-64
2022/05/02 11:08:19;;;;;;;4.07;1.80;;;21.70;38.30;;;;;;5000663;28;88936;-64
2022/05/02 11:10:48;;;;;;;2.43;1.90;;;21.70;38.30;;;;;;5000036;28;88503;-64
2022/05/02 11:13:24;;;;;;;5.27;1.93;;;21.70;38.20;;;;;;4999788;28;91235;-65
2022/05/02 11:15:59;;;;;;;3.60;2.20;;;21.70;38.20;;;;;;5016098;28;88566;-64
2022/05/02 11:21:37;;;;;;;3.80;1.97;;;21.70;38.00;;;;;;5002205;28;88404;-64
2022/05/02 11:24:25;;;;;;;2.60;2.10;;;21.70;38.00;;;;;;5001076;28;93362;-64
2022/05/02 11:26:59;;;;;;;5.23;2.03;;;21.70;38.80;;;;;;5000525;28;88770;-64
2022/05/02 11:29:32;;;;;;;2.00;1.80;;;21.80;38.10;;;;;;5002539;28;90346;-64
2022/05/02 11:32:03;;;;;;;2.67;2.03;;;21.80;38.10;;;;;;5000066;28;88583;-64
2022/05/02 11:34:38;;;;;;;1.50;1.37;;;21.80;38.00;;;;;;5001583;28;90955;-64
2022/05/02 11:37:06;;;;;;;3.37;2.20;;;21.80;38.00;;;;;;5003148;28;90558;-64
2022/05/02 11:39:40;;;;;;;2.17;1.97;;;21.90;38.10;;;;;;4999847;28;90095;-64
2022/05/02 11:42:10;;;;;;;3.50;1.97;;;21.90;38.00;;;;;;4999133;28;88733;-65
2022/05/02 11:44:47;;;;;;;2.27;1.70;;;21.90;38.00;;;;;;5010291;28;90660;-64
2022/05/02 11:47:19;;;;;;;5.83;2.27;;;21.90;37.90;;;;;;5020764;28;90475;-64
2022/05/02 11:50:02;;;;;;;2.67;2.20;;;21.90;37.90;;;;;;5020513;28;90711;-64
2022/05/02 11:52:32;;;;;;;3.33;2.23;;;21.90;37.80;;;;;;5020795;28;88553;-64
2022/05/02 11:55:01;;;;;;;1.97;1.83;;;21.90;37.60;;;;;;5018787;28;89575;-64
2022/05/02 11:57:36;;;;;;;3.57;2.07;;;21.90;37.60;;;;;;5021640;28;89565;-64
2022/05/02 12:00:11;;;;;;;2.47;1.93;;;21.90;37.70;;;;;;5021016;28;89154;-64
2022/05/02 12:02:51;;;;;;;3.60;2.17;;;21.90;37.60;;;;;;5021047;28;88582;-64
2022/05/02 12:05:24;;;;;;;2.13;1.93;;;21.90;37.60;;;;;;5004405;27;90611;-64
2022/05/02 12:07:54;;;;;;;2.33;1.90;;;21.90;37.50;;;;;;4999931;28;89223;-64
2022/05/02 12:10:33;;;;;;;2.43;2.10;;;22.00;37.60;;;;;;4999047;28;89714;-64
2022/05/02 12:13:01;;;;;;;3.13;1.73;;;22.00;37.60;;;;;;4999690;28;88490;-64
2022/05/02 12:15:29;;;;;;;2.43;2.23;;;22.10;37.60;;;;;;5000176;28;90723;-64
2022/05/02 12:17:59;;;;;;;2.53;2.33;;;22.10;37.60;;;;;;4999194;28;92858;-64
2022/05/02 12:20:28;;;;;;;2.73;2.17;;;22.10;37.50;;;;;;4999407;28;88875;-65
2022/05/02 12:23:00;;;;;;;2.37;1.87;;;22.10;37.40;;;;;;4999883;28;88703;-64
2022/05/02 12:25:29;;;;;;;2.43;1.83;;;22.00;37.40;;;;;;5001990;28;93378;-64
2022/05/02 12:27:58;;;;;;;2.33;2.13;;;22.00;37.40;;;;;;4998760;28;89141;-64
2022/05/02 12:30:27;;;;;;;2.43;2.13;;;22.00;37.90;;;;;;4998776;28;89215;-66
2022/05/02 12:33:03;;;;;;;2.47;1.93;;;22.00;37.30;;;;;;5000897;28;88579;-66
2022/05/02 12:35:37;;;;;;;1.80;1.57;;;22.00;37.20;;;;;;4999317;28;93115;-66
2022/05/02 12:38:14;;;;;;;4.03;2.00;;;22.10;37.30;;;;;;4998912;28;90452;-66
2022/05/02 12:40:44;;;;;;;2.93;1.97;;;22.10;37.30;;;;;;4997964;28;88655;-66
2022/05/02 12:43:16;;;;;;;4.03;2.50;;;22.10;37.10;;;;;;4999523;28;88710;-66
2022/05/02 12:45:46;;;;;;;4.23;2.67;;;22.10;37.00;;;;;;5001542;28;91257;-66
2022/05/02 12:48:22;;;;;;;3.67;2.30;;;22.10;37.00;;;;;;4998386;28;89011;-66
2022/05/02 12:50:51;;;;;;;2.60;2.20;;;22.10;37.10;;;;;;4997954;28;91522;-66
2022/05/02 12:54:09;;;;;;;3.03;2.10;;;22.10;37.00;;;;;;5006086;28;88654;-66
2022/05/02 12:56:09;;;;;;;3.30;1.83;;;22.10;37.70;;;;;;5001501;28;90650;-67
2022/05/02 13:01:24;;;;;;;3.90;1.90;;;22.20;37.20;;;;;;4998427;28;91080;-66
2022/05/02 13:03:56;;;;;;;4.00;2.10;;;22.20;37.20;;;;;;5017420;28;88434;-66
2022/05/02 13:06:24;;;;;;;4.90;1.97;;;22.20;37.30;;;;;;5019203;28;90069;-66
2022/05/02 13:08:52;;;;;;;6.23;2.30;;;22.20;37.30;;;;;;5019355;28;89929;-67
2022/05/02 13:11:23;;;;;;;2.80;1.93;;;22.30;37.30;;;;;;4998759;28;91473;-67
2022/05/02 13:13:52;;;;;;;4.60;1.93;;;22.30;37.40;;;;;;5001207;28;88712;-66
2022/05/02 13:16:26;;;;;;;3.03;2.40;;;22.40;37.50;;;;;;4998226;28;89509;-67
2022/05/02 13:18:55;;;;;;;6.00;2.50;;;22.40;37.50;;;;;;4998521;28;89530;-66
2022/05/02 13:21:23;;;;;;;2.53;2.10;;;22.50;38.20;;;;;;5014068;28;92233;-66
2022/05/02 13:23:52;;;;;;;4.10;2.63;;;22.40;37.50;;;;;;4999697;28;88582;-66
2022/05/02 13:26:37;;;;;;;3.13;2.40;;;22.40;37.50;;;;;;4998931;28;93289;-66
2022/05/02 13:29:10;;;;;;;4.00;1.90;;;22.40;37.50;;;;;;4998497;28;90114;-66
2022/05/02 13:31:48;;;;;;;3.27;2.40;;;22.40;37.50;;;;;;4998548;28;88501;-66
2022/05/02 13:34:31;;;;;;;3.47;2.40;;;22.40;37.50;;;;;;4998655;28;88686;-66
2022/05/02 13:37:04;;;;;;;5.57;2.40;;;22.40;37.60;;;;;;4998084;28;90867;-66
2022/05/02 13:39:41;;;;;;;5.27;2.70;;;22.40;37.50;;;;;;4999197;28;88359;-66
2022/05/02 13:42:14;;;;;;;2.30;2.10;;;22.50;37.60;;;;;;4998234;28;88364;-66
2022/05/02 13:44:48;;;;;;;3.40;2.17;;;22.50;37.60;;;;;;4998655;28;88540;-66
2022/05/02 13:47:18;;;;;;;2.93;2.07;;;22.50;37.60;;;;;;4998491;28;90054;-67
2022/05/02 13:49:59;;;;;;;3.63;2.27;;;22.40;37.60;;;;;;4998265;28;93309;-66
2022/05/02 13:52:31;;;;;;;4.33;2.27;;;22.50;37.70;;;;;;5004105;28;88935;-66